Pindi Bhattian Weather



Pindi Bhattian's Current Weather

Temprature 11.7o light rain

light rain

Rain: 56 %

Min Temprature11.7o
Max Temprature11.7o
Humidity81
Wind Speed2.98 m/h
Sun Rise07:03:39
Sun Set17:35:05
Current Time: 27-Jan-2020 18:47:03
Lat/Lon: 31.9, 73.27




Pindi Bhattian's Geo Location



Pindi Bhattian's Weather Forecast

Time Overall Temp Min Temp Max Temp Humidity Wind Speed Rain
27-Jan-2020 (Mon)
20:00:00 light rain 11.700 11.700 11.700 81 2.98 m/h 56 %
23:00:00 overcast clouds 11.150 11.150 11.150 83 3.2 m/h 0 %
28-Jan-2020 (Tue)
02:00:00 light rain 11.780 11.780 11.780 83 2.96 m/h 31 %
05:00:00 light rain 11.170 11.170 11.170 89 2.87 m/h 138 %
08:00:00 light rain 10.770 10.770 10.770 93 4.1 m/h 256 %
11:00:00 light rain 12.330 12.330 12.330 86 4.93 m/h 231 %
14:00:00 light rain 10.600 10.600 10.600 90 5.55 m/h 125 %
17:00:00 light rain 11.130 11.130 11.130 90 4.39 m/h 31 %
20:00:00 overcast clouds 11.060 11.060 11.060 93 2.86 m/h 0 %
23:00:00 overcast clouds 10.030 10.030 10.030 97 2.12 m/h 0 %
29-Jan-2020 (Wed)
02:00:00 overcast clouds 10.020 10.020 10.020 96 2.21 m/h 0 %
05:00:00 overcast clouds 10.030 10.030 10.030 93 2.44 m/h 0 %
08:00:00 light rain 10.190 10.190 10.190 92 2.44 m/h 13 %
11:00:00 light rain 14.700 14.700 14.700 72 2.23 m/h 6 %
14:00:00 light rain 15.920 15.920 15.920 69 2.89 m/h 150 %
17:00:00 light rain 13.830 13.830 13.830 80 3.36 m/h 181 %
20:00:00 light rain 10.470 10.470 10.470 89 2.4 m/h 13 %
23:00:00 clear sky 9.360 9.360 9.360 90 2.12 m/h 0 %
30-Jan-2020 (Thu)
02:00:00 clear sky 8.240 8.240 8.240 91 2.02 m/h 0 %
05:00:00 clear sky 7.500 7.500 7.500 92 1.82 m/h 0 %
08:00:00 clear sky 8.970 8.970 8.970 90 1.3 m/h 0 %
11:00:00 clear sky 14.810 14.810 14.810 71 1.97 m/h 0 %
14:00:00 broken clouds 17.750 17.750 17.750 52 1.73 m/h 0 %
17:00:00 broken clouds 15.680 15.680 15.680 59 1.03 m/h 0 %
20:00:00 clear sky 11.340 11.340 11.340 73 1.37 m/h 0 %
23:00:00 clear sky 10.130 10.130 10.130 78 0.63 m/h 0 %
31-Jan-2020 (Fri)
02:00:00 clear sky 8.940 8.940 8.940 85 1.28 m/h 0 %
05:00:00 clear sky 8.310 8.310 8.310 85 0.29 m/h 0 %
08:00:00 clear sky 10.040 10.040 10.040 79 0.31 m/h 0 %
11:00:00 clear sky 16.660 16.660 16.660 53 1.67 m/h 0 %
14:00:00 overcast clouds 18.590 18.590 18.590 40 2.37 m/h 0 %
17:00:00 overcast clouds 16.050 16.050 16.050 48 1.36 m/h 0 %
20:00:00 broken clouds 11.730 11.730 11.730 56 0.54 m/h 0 %
23:00:00 scattered clouds 10.020 10.020 10.020 58 1.45 m/h 0 %
01-Feb-2020 (Sat)
02:00:00 clear sky 9.100 9.100 9.100 63 0.91 m/h 0 %
05:00:00 clear sky 8.470 8.470 8.470 65 1.16 m/h 0 %
08:00:00 clear sky 9.740 9.740 9.740 64 0.58 m/h 0 %
11:00:00 clear sky 17.450 17.450 17.450 39 1.34 m/h 0 %
14:00:00 clear sky 19.720 19.720 19.720 28 1.89 m/h 0 %
17:00:00 clear sky 16.620 16.620 16.620 40 1.42 m/h 0 %

Famous Cities (61)